Time;durP1;ratioP1;P1;durP2;ratioP2;P2;SDS_P1;SDS_P2;PMS_P1;PMS_P2;Temp;Humidity;BMP_temperature;BMP_pressure;BME280_temperature;BME280_humidity;BME280_pressure;Samples;Min_cycle;Max_cycle;Signal;HPM_P1;HPM_P2
2021/03/20 00:00:46;;;;;;;13.07;9.73;;;5.40;99.90;;;4.97;80.68;102506.31;4180379;28;20032;-76
2021/03/20 00:02:47;;;;;;;16.70;9.02;;;5.40;99.90;;;5.17;80.15;102526.25;4171420;28;20078;-75
2021/03/20 00:04:47;;;;;;;13.27;9.32;;;5.40;99.90;;;5.16;81.10;102522.81;4175937;28;20025;-75
2021/03/20 00:06:53;;;;;;;12.68;8.63;;;5.40;99.90;;;5.17;80.24;102524.47;4184146;28;20029;-76
2021/03/20 00:08:55;;;;;;;14.95;8.48;;;5.40;99.90;;;5.13;80.79;102512.50;4182784;28;20467;-75
2021/03/20 00:10:56;;;;;;;17.23;9.55;;;5.40;99.90;;;5.21;79.87;102525.16;4166298;28;20040;-75
2021/03/20 00:12:58;;;;;;;15.25;9.75;;;5.40;99.90;;;5.13;80.27;102525.56;4191217;28;20024;-76
2021/03/20 00:14:59;;;;;;;15.52;9.43;;;5.50;99.90;;;5.07;80.74;102525.88;4183668;28;20032;-75
2021/03/20 00:17:00;;;;;;;15.15;9.70;;;5.40;99.90;;;5.09;80.17;102526.63;4165330;28;20029;-75
2021/03/20 00:19:01;;;;;;;11.75;9.43;;;5.40;99.90;;;5.01;81.21;102536.66;4173234;28;20443;-75
2021/03/20 00:21:03;;;;;;;13.32;9.45;;;5.30;99.90;;;4.90;81.10;102531.94;4184738;28;20070;-75
2021/03/20 00:23:05;;;;;;;12.15;9.35;;;5.30;99.90;;;4.91;81.62;102527.56;4184824;28;20396;-76
2021/03/20 00:25:07;;;;;;;15.43;9.65;;;5.30;99.90;;;4.75;82.45;102537.91;4183478;28;20036;-76
2021/03/20 00:27:08;;;;;;;14.98;8.75;;;5.20;99.90;;;4.70;83.05;102533.84;4173358;28;20021;-75
2021/03/20 00:29:09;;;;;;;15.15;9.55;;;5.10;99.90;;;4.69;82.95;102534.78;4184524;28;20025;-76
2021/03/20 00:31:12;;;;;;;14.73;8.88;;;5.00;99.90;;;4.63;82.90;102530.66;4184783;28;20036;-76
2021/03/20 00:33:13;;;;;;;12.50;9.00;;;4.90;99.90;;;4.87;81.57;102523.38;4184641;28;20064;-75
2021/03/20 00:35:16;;;;;;;12.23;8.95;;;5.00;99.90;;;4.93;80.54;102541.38;4183506;28;20036;-75
2021/03/20 00:37:17;;;;;;;14.88;8.82;;;5.00;99.90;;;4.78;82.30;102550.00;4176820;28;20079;-75
2021/03/20 00:39:18;;;;;;;10.80;8.95;;;5.00;99.90;;;4.84;81.23;102540.06;4184638;28;20033;-75
2021/03/20 00:41:19;;;;;;;11.55;9.05;;;4.90;99.90;;;4.78;82.18;102543.00;4167987;28;20036;-75
2021/03/20 00:43:21;;;;;;;12.38;8.38;;;5.00;99.90;;;4.76;82.82;102547.47;4172945;28;20078;-75
2021/03/20 00:45:25;;;;;;;11.45;8.50;;;5.00;99.90;;;4.88;81.01;102546.00;4184583;28;20078;-75
2021/03/20 00:47:26;;;;;;;;;;;5.00;99.90;;;4.70;81.90;102545.13;4184874;28;20032;-75
2021/03/20 00:49:27;;;;;;;13.55;9.15;;;5.00;99.90;;;4.69;81.65;102548.66;4183431;28;19988;-76
2021/03/20 00:51:28;;;;;;;15.80;9.18;;;5.00;99.90;;;4.72;82.43;102550.31;4175205;28;20516;-76
2021/03/20 00:53:30;;;;;;;16.20;9.35;;;4.90;99.90;;;4.75;81.14;102539.69;4178228;28;20025;-76
2021/03/20 00:55:31;;;;;;;13.52;9.00;;;4.90;99.90;;;4.66;81.69;102554.03;4187525;28;20025;-75
2021/03/20 00:57:31;;;;;;;15.73;9.07;;;4.90;99.90;;;4.56;82.04;102551.94;4187443;28;20036;-75
2021/03/20 00:59:32;;;;;;;12.95;8.98;;;4.90;99.90;;;4.52;82.66;102564.31;4187319;28;20021;-76
2021/03/20 01:01:33;;;;;;;15.18;9.00;;;4.80;99.90;;;4.45;82.81;102565.50;4187483;28;20462;-75
2021/03/20 01:03:38;;;;;;;9.23;8.05;;;4.80;99.90;;;4.60;81.80;102570.00;4187519;28;20029;-75
2021/03/20 01:05:38;;;;;;;;;;;4.70;99.90;;;4.58;82.42;102566.63;4187852;28;20037;-75
2021/03/20 01:07:40;;;;;;;11.65;8.45;;;4.70;99.90;;;4.55;82.34;102576.38;4186390;28;19916;-75
2021/03/20 01:09:41;;;;;;;12.77;9.18;;;4.70;99.90;;;4.52;82.69;102574.75;4177652;28;20021;-75
2021/03/20 01:11:42;;;;;;;10.60;8.13;;;4.70;99.90;;;4.47;82.08;102588.06;4180788;28;20107;-76
2021/03/20 01:13:43;;;;;;;13.00;8.38;;;4.70;99.90;;;4.43;82.01;102580.44;4187054;28;20036;-75
2021/03/20 01:15:44;;;;;;;14.82;9.48;;;4.60;99.90;;;4.50;82.61;102586.22;4187428;28;20093;-75
2021/03/20 01:17:46;;;;;;;13.27;8.52;;;4.70;99.90;;;4.58;82.27;102582.31;4187236;28;20431;-75
2021/03/20 01:19:47;;;;;;;19.98;10.52;;;4.70;99.90;;;4.54;82.32;102578.16;4185912;28;20027;-75
2021/03/20 01:21:47;;;;;;;12.63;9.10;;;4.70;99.90;;;4.43;82.36;102575.19;4187112;28;20025;-75
2021/03/20 01:23:48;;;;;;;14.63;9.68;;;4.60;99.90;;;4.66;81.88;102584.59;4186151;28;20029;-76
2021/03/20 01:25:49;;;;;;;13.27;9.02;;;4.70;99.90;;;4.47;82.41;102576.75;4178599;28;20067;-76
2021/03/20 01:27:52;;;;;;;18.63;9.93;;;4.70;99.90;;;4.47;82.44;102580.22;4186893;28;20036;-75
2021/03/20 01:29:53;;;;;;;10.63;8.77;;;4.70;99.90;;;4.67;81.79;102581.03;4185809;28;20399;-76
2021/03/20 01:31:54;;;;;;;11.00;9.15;;;4.70;99.90;;;4.70;81.90;102591.34;4169371;28;20076;-75
2021/03/20 01:33:55;;;;;;;15.50;9.30;;;4.70;99.90;;;4.50;82.35;102588.81;4178910;28;20024;-75
2021/03/20 01:35:56;;;;;;;13.63;9.80;;;4.70;99.90;;;4.68;82.33;102585.34;4187004;28;20033;-76
2021/03/20 01:37:57;;;;;;;15.07;8.80;;;4.80;99.90;;;4.69;81.04;102590.50;4186901;28;20033;-76
2021/03/20 01:39:58;;;;;;;10.23;8.25;;;4.80;99.90;;;4.65;82.40;102590.72;4180940;28;20575;-76
2021/03/20 01:41:59;;;;;;;13.50;9.32;;;4.80;99.90;;;4.61;82.19;102582.16;4178371;28;20021;-75
2021/03/20 01:44:00;;;;;;;14.05;9.93;;;4.90;99.90;;;4.63;81.22;102595.19;4185527;28;20562;-75
2021/03/20 01:46:40;;;;;;;17.65;9.40;;;4.90;99.90;;;4.67;81.83;102594.09;4184826;28;20484;-76
2021/03/20 01:48:41;;;;;;;13.10;8.73;;;4.80;99.90;;;4.62;81.87;102598.72;4186859;28;20385;-75
2021/03/20 01:51:01;;;;;;;12.40;8.27;;;4.90;99.90;;;4.43;82.08;102594.34;4168734;28;20052;-75
2021/03/20 01:53:51;;;;;;;15.75;9.77;;;4.90;99.90;;;4.58;82.70;102604.97;4174933;28;20036;-76
2021/03/20 01:55:53;;;;;;;14.80;8.50;;;4.80;99.90;;;4.59;82.56;102596.25;4156597;28;20049;-76
2021/03/20 01:58:00;;;;;;;13.85;7.75;;;4.80;99.90;;;4.44;83.05;102587.34;4175683;28;20037;-75
2021/03/20 02:00:11;;;;;;;11.23;8.32;;;4.80;99.90;;;4.36;82.60;102566.78;4184949;28;20033;-75
2021/03/20 02:02:12;;;;;;;18.00;8.63;;;4.80;99.90;;;4.43;83.33;102591.72;4199843;28;20078;-76
2021/03/20 02:04:14;;;;;;;12.75;8.85;;;4.80;99.90;;;4.42;83.07;102586.59;4186626;28;20037;-76
2021/03/20 02:06:16;;;;;;;14.18;9.63;;;4.70;99.90;;;4.35;82.99;102586.03;4185257;28;20017;-76
2021/03/20 02:08:18;;;;;;;13.55;8.60;;;4.80;99.90;;;4.43;83.13;102604.78;4186677;28;20029;-75
2021/03/20 02:10:22;;;;;;;11.15;8.63;;;4.80;99.90;;;4.46;82.67;102612.50;4186510;28;20051;-76
2021/03/20 02:12:30;;;;;;;13.32;8.32;;;4.80;99.90;;;4.48;82.43;102602.81;4186650;28;20033;-76
2021/03/20 02:14:55;;;;;;;13.82;8.93;;;4.80;99.90;;;4.46;83.22;102603.78;4184982;28;20420;-76
2021/03/20 02:17:36;;;;;;;14.68;8.65;;;4.80;99.90;;;4.29;85.15;102595.91;4184345;28;20039;-76
2021/03/20 02:19:51;;;;;;;12.90;8.45;;;4.80;99.90;;;4.19;84.82;102594.63;4165332;28;20048;-76
2021/03/20 02:22:07;;;;;;;12.15;9.07;;;4.80;99.90;;;4.30;83.96;102598.44;4173012;28;20097;-76
2021/03/20 02:24:51;;;;;;;17.30;8.93;;;4.70;99.90;;;4.20;84.56;102594.56;4184803;28;20067;-76
2021/03/20 02:27:45;;;;;;;14.05;9.35;;;4.70;99.90;;;4.26;84.84;102594.28;4174149;28;20044;-75
2021/03/20 02:30:10;;;;;;;17.73;9.48;;;4.70;99.90;;;4.20;84.41;102601.53;4161739;28;20563;-76
2021/03/20 02:33:09;;;;;;;12.70;9.98;;;4.70;99.90;;;4.14;84.02;102593.97;4186235;28;20020;-76
2021/03/20 02:35:38;;;;;;;11.32;9.40;;;4.70;99.90;;;4.06;84.41;102583.88;4186262;28;20343;-76
2021/03/20 02:38:21;;;;;;;14.63;10.18;;;4.70;99.90;;;4.15;84.50;102593.06;4182624;28;20021;-76
2021/03/20 02:40:43;;;;;;;10.68;9.23;;;4.60;99.90;;;4.16;85.33;102590.38;4177419;28;20025;-76
2021/03/20 02:43:20;;;;;;;16.63;9.40;;;4.70;99.90;;;4.26;83.80;102586.44;4184405;28;20028;-76
2021/03/20 02:45:41;;;;;;;13.77;9.13;;;4.60;99.90;;;4.19;84.06;102590.25;4178220;28;20025;-76
2021/03/20 02:47:57;;;;;;;14.23;9.68;;;4.60;99.90;;;4.07;85.10;102589.94;4184088;28;20047;-76
2021/03/20 02:50:14;;;;;;;13.02;10.73;;;4.60;99.90;;;4.22;84.68;102584.03;4174700;28;20063;-76
2021/03/20 02:52:46;;;;;;;12.68;8.60;;;4.60;99.90;;;4.14;84.71;102589.63;4180664;28;20515;-76
2021/03/20 02:55:23;;;;;;;15.77;9.70;;;4.60;99.90;;;4.24;83.84;102609.16;4162943;28;20042;-75
2021/03/20 02:57:56;;;;;;;12.75;8.73;;;4.60;99.90;;;4.20;85.09;102598.94;4182132;28;20025;-76
2021/03/20 03:00:16;;;;;;;12.10;8.52;;;4.50;99.90;;;4.08;84.93;102582.06;4178369;28;20416;-76
2021/03/20 03:02:20;;;;;;;12.80;9.25;;;4.30;99.90;;;4.15;83.54;102591.28;4184020;28;20380;-76
2021/03/20 03:04:24;;;;;;;10.65;7.97;;;4.40;99.90;;;4.31;83.82;102589.69;4173346;28;20025;-76
2021/03/20 03:06:59;;;;;;;11.55;8.20;;;4.50;99.90;;;4.14;84.64;102578.31;4177099;28;20435;-76
2021/03/20 03:09:13;;;;;;;10.47;9.00;;;4.50;99.90;;;4.04;84.37;102564.81;4181706;28;20033;-75
2021/03/20 03:11:40;;;;;;;13.63;9.25;;;4.40;99.90;;;4.14;84.77;102576.56;4176438;28;20119;-76
2021/03/20 03:13:55;;;;;;;15.57;9.77;;;4.40;99.90;;;4.16;84.30;102577.31;4183543;28;20064;-76
2021/03/20 03:16:04;;;;;;;16.77;9.30;;;4.40;99.90;;;4.16;84.00;102585.16;4183531;28;20033;-76
2021/03/20 03:18:22;;;;;;;10.98;8.68;;;4.50;99.90;;;4.20;83.78;102591.94;4178737;28;20531;-76
2021/03/20 03:20:32;;;;;;;12.77;9.02;;;4.40;99.90;;;4.05;85.65;102603.09;4171676;28;20059;-74
2021/03/20 03:22:57;;;;;;;11.50;8.23;;;4.30;99.90;;;4.18;83.83;102598.16;4200101;28;20028;-75
2021/03/20 03:25:03;;;;;;;16.87;9.07;;;4.40;99.90;;;4.18;83.85;102600.78;4197973;28;20025;-76
2021/03/20 03:27:12;;;;;;;13.02;9.10;;;4.40;99.90;;;4.12;83.58;102604.47;4199863;28;20321;-75
2021/03/20 03:29:24;;;;;;;13.85;9.82;;;4.30;99.90;;;4.04;83.94;102608.34;4178048;28;20040;-76
2021/03/20 03:31:39;;;;;;;11.57;8.50;;;4.20;99.90;;;4.04;83.77;102598.78;4185305;28;20059;-76
2021/03/20 03:33:52;;;;;;;10.75;8.23;;;4.20;99.90;;;3.95;84.93;102612.22;4189438;28;20491;-75
2021/03/20 03:36:05;;;;;;;15.13;9.63;;;4.20;99.90;;;3.95;84.03;102611.38;4183512;28;20033;-75
2021/03/20 03:38:27;;;;;;;14.50;8.68;;;4.20;99.90;;;3.87;84.34;102611.72;4183651;28;20037;-75
2021/03/20 03:41:01;;;;;;;17.35;9.38;;;4.20;99.90;;;3.80;85.03;102615.50;4176084;28;20030;-75
2021/03/20 03:43:02;;;;;;;12.48;8.65;;;4.10;99.90;;;3.68;85.04;102603.00;4186390;28;20112;-75
2021/03/20 03:45:09;;;;;;;15.60;10.30;;;4.00;99.90;;;3.70;85.94;102614.25;4183976;28;20116;-75
2021/03/20 03:47:18;;;;;;;13.55;9.65;;;4.00;99.90;;;3.96;84.37;102619.16;4179754;28;20047;-75
2021/03/20 03:49:22;;;;;;;11.75;7.90;;;4.00;99.90;;;3.90;84.88;102616.81;4183544;28;20114;-75
2021/03/20 03:51:24;;;;;;;14.35;10.52;;;4.10;99.90;;;3.97;84.61;102610.41;4173206;28;20060;-76
2021/03/20 03:53:28;;;;;;;13.05;8.57;;;4.10;99.90;;;3.90;85.38;102624.66;4176696;28;20029;-76
2021/03/20 03:55:30;;;;;;;18.65;9.98;;;4.10;99.90;;;3.80;86.43;102618.13;4185008;28;20021;-75
2021/03/20 03:58:01;;;;;;;13.50;9.35;;;4.00;99.90;;;3.72;84.68;102609.78;4184018;28;20436;-75
2021/03/20 04:00:48;;;;;;;11.15;9.20;;;4.10;99.90;;;3.72;85.97;102625.44;4176618;28;20021;-75
2021/03/20 04:03:17;;;;;;;13.60;8.45;;;4.00;99.90;;;3.81;85.21;102630.28;4174925;28;20032;-76
2021/03/20 04:05:36;;;;;;;13.23;8.38;;;4.00;99.90;;;3.73;85.12;102622.75;4184842;28;20025;-75
2021/03/20 04:08:14;;;;;;;12.85;10.18;;;4.00;99.90;;;3.67;84.43;102632.63;4185263;28;20029;-75
2021/03/20 04:10:42;;;;;;;9.85;7.72;;;3.90;99.90;;;3.65;84.53;102637.06;4184858;28;20021;-76
2021/03/20 04:12:59;;;;;;;12.85;8.82;;;3.80;99.90;;;3.68;84.54;102640.38;4184712;28;20029;-75
2021/03/20 04:15:48;;;;;;;15.90;9.45;;;3.80;99.90;;;3.65;84.60;102629.22;4182987;28;20033;-76
2021/03/20 04:18:05;;;;;;;9.90;8.45;;;3.80;99.90;;;3.60;84.76;102636.41;4182717;28;20424;-76
2021/03/20 04:20:20;;;;;;;10.40;8.75;;;3.80;99.90;;;3.63;84.00;102634.53;4182266;28;20087;-76
2021/03/20 04:23:06;;;;;;;18.25;10.13;;;3.80;99.90;;;3.65;84.97;102634.44;4175763;28;20025;-76
2021/03/20 04:25:36;;;;;;;16.35;9.93;;;3.80;99.90;;;3.66;86.21;102629.16;4175953;28;20080;-75
2021/03/20 04:27:47;;;;;;;14.63;9.00;;;3.80;99.90;;;3.64;84.70;102638.00;4179889;28;20092;-75
2021/03/20 04:29:58;;;;;;;14.85;9.90;;;3.80;99.90;;;3.46;85.51;102639.63;4185657;28;20032;-75
2021/03/20 04:32:28;;;;;;;10.43;8.85;;;3.80;99.90;;;3.38;86.12;102635.59;4188150;28;20174;-75
2021/03/20 04:34:35;;;;;;;12.18;8.95;;;3.70;99.90;;;3.22;87.22;102636.25;4198760;28;20024;-75
2021/03/20 04:36:54;;;;;;;14.35;9.52;;;3.60;99.90;;;3.38;86.74;102643.44;4175262;28;20032;-75
2021/03/20 04:38:56;;;;;;;16.00;9.38;;;3.60;99.90;;;3.35;86.11;102647.00;4188040;28;20021;-76
2021/03/20 04:41:06;;;;;;;12.85;8.52;;;3.60;99.90;;;3.42;84.15;102647.63;4173575;28;20038;-76
2021/03/20 04:43:10;;;;;;;14.55;9.32;;;3.60;99.90;;;3.40;83.76;102645.09;4186383;28;20029;-76
2021/03/20 04:45:31;;;;;;;;;;;3.60;99.90;;;3.34;84.06;102651.38;4178610;28;20419;-76
2021/03/20 04:47:38;;;;;;;13.63;7.72;;;3.50;99.90;;;3.26;84.09;102655.22;4185104;28;19913;-75
2021/03/20 04:49:49;;;;;;;13.65;8.73;;;3.50;99.90;;;3.15;86.20;102655.66;4186357;28;20041;-75
2021/03/20 04:52:00;;;;;;;16.20;10.10;;;3.50;99.90;;;3.22;86.37;102657.13;4178696;28;20035;-75
2021/03/20 04:54:18;;;;;;;15.38;9.30;;;3.50;99.90;;;3.07;87.21;102647.31;4183888;28;20025;-76
2021/03/20 04:56:22;;;;;;;12.18;9.77;;;3.40;99.90;;;3.08;87.23;102655.94;4186015;28;20029;-76
2021/03/20 04:58:46;;;;;;;15.77;9.18;;;3.40;99.90;;;3.11;86.82;102658.44;4179554;28;20032;-76
2021/03/20 05:00:54;;;;;;;13.45;9.18;;;3.40;99.90;;;3.09;86.77;102655.06;4186347;28;20036;-76
2021/03/20 05:03:32;;;;;;;13.73;9.98;;;3.30;99.90;;;3.21;86.02;102663.25;4202419;28;20021;-76
2021/03/20 05:06:00;;;;;;;14.65;9.65;;;3.40;99.90;;;3.15;87.36;102666.09;4186168;28;20040;-76
2021/03/20 05:08:26;;;;;;;14.85;9.77;;;3.40;99.90;;;3.15;86.29;102653.06;4187718;28;20024;-76
2021/03/20 05:10:42;;;;;;;;;;;3.40;99.90;;;3.13;85.05;102636.63;4159702;28;20040;-76
2021/03/20 05:12:48;;;;;;;14.77;10.18;;;3.40;99.90;;;3.28;85.75;102662.09;4184819;28;19916;-76
2021/03/20 05:15:29;;;;;;;13.23;8.25;;;3.40;99.90;;;3.15;86.95;102660.88;4180939;28;20025;-76
2021/03/20 05:17:32;;;;;;;14.77;10.60;;;3.40;99.90;;;3.20;86.50;102655.47;4190302;28;20086;-76
2021/03/20 05:19:33;;;;;;;13.52;9.95;;;3.50;99.90;;;2.97;87.72;102638.16;4187234;28;20447;-76
2021/03/20 05:21:38;;;;;;;14.88;9.75;;;3.40;99.90;;;3.21;87.96;102660.63;4187035;28;20041;-76
2021/03/20 05:23:39;;;;;;;15.63;10.50;;;3.40;99.90;;;3.36;88.48;102664.38;4186035;28;20044;-76
2021/03/20 05:25:40;;;;;;;16.48;10.73;;;3.50;99.90;;;3.41;88.29;102672.84;4202656;28;20028;-76
2021/03/20 05:27:41;;;;;;;17.60;11.30;;;3.50;99.90;;;3.24;86.76;102638.78;4186893;28;20057;-77
2021/03/20 05:29:42;;;;;;;17.63;10.50;;;3.60;99.90;;;3.50;87.09;102664.63;4186984;28;20028;-76
2021/03/20 05:31:44;;;;;;;18.70;11.48;;;3.60;99.90;;;3.40;86.69;102665.09;4185671;28;20492;-76
2021/03/20 05:33:48;;;;;;;17.15;10.95;;;3.60;99.90;;;3.41;87.18;102666.78;4187227;28;20036;-76
2021/03/20 05:35:49;;;;;;;16.08;10.77;;;3.70;99.90;;;3.39;87.95;102660.78;4184878;28;20210;-76
2021/03/20 05:37:50;;;;;;;17.48;11.18;;;3.70;99.90;;;3.50;87.40;102662.03;4182735;28;20041;-76
2021/03/20 05:39:52;;;;;;;11.88;9.68;;;3.70;99.90;;;3.22;87.98;102646.69;4182125;28;20109;-76
2021/03/20 05:42:23;;;;;;;15.57;11.45;;;3.70;99.90;;;3.40;87.48;102667.72;4170371;28;20032;-76
2021/03/20 05:44:59;;;;;;;15.85;11.15;;;3.70;99.90;;;3.40;86.94;102676.38;4170831;28;20061;-76
2021/03/20 05:47:25;;;;;;;18.73;11.27;;;3.70;99.90;;;3.30;88.02;102672.44;4184636;28;20059;-77
2021/03/20 05:49:41;;;;;;;24.30;11.32;;;3.70;99.90;;;3.32;87.80;102678.44;4184230;28;20103;-76
2021/03/20 05:52:14;;;;;;;18.33;10.98;;;3.60;99.90;;;3.20;89.10;102677.19;4176337;28;20068;-76
2021/03/20 05:54:42;;;;;;;17.42;11.52;;;3.60;99.90;;;3.38;88.70;102680.78;4185204;28;20552;-76
2021/03/20 05:57:28;;;;;;;17.92;11.60;;;3.60;99.90;;;3.40;88.26;102688.56;4185294;28;20075;-76
2021/03/20 05:59:37;;;;;;;;;;;3.70;99.90;;;3.31;88.52;102688.06;4173121;28;20455;-76
2021/03/20 06:01:41;;;;;;;18.45;10.75;;;3.70;99.90;;;3.29;88.98;102689.00;4179327;28;19935;-76
2021/03/20 06:04:25;;;;;;;16.42;10.90;;;3.70;99.90;;;3.30;87.64;102686.34;4186651;28;20051;-76
2021/03/20 06:06:46;;;;;;;19.90;11.07;;;3.70;99.90;;;3.17;89.53;102689.47;4186720;28;20032;-76
2021/03/20 06:09:08;;;;;;;20.48;12.40;;;3.70;99.90;;;3.10;90.25;102690.66;4185215;28;20111;-76
2021/03/20 06:11:40;;;;;;;20.45;12.48;;;3.60;99.90;;;3.17;89.85;102697.31;4175524;28;20025;-76
2021/03/20 06:13:56;;;;;;;21.17;11.75;;;3.80;99.90;;;3.27;89.53;102702.09;4183008;28;20037;-76
2021/03/20 06:16:23;;;;;;;18.20;12.65;;;3.70;99.90;;;3.17;89.33;102705.13;4186541;28;20480;-75
2021/03/20 06:18:57;;;;;;;20.83;12.05;;;3.60;99.90;;;3.30;89.00;102717.63;4186489;28;20075;-76
2021/03/20 06:21:58;;;;;;;18.58;12.55;;;3.60;99.90;;;3.31;88.92;102708.91;4186371;28;20040;-76
2021/03/20 06:24:08;;;;;;;19.42;12.23;;;3.70;99.90;;;3.35;89.15;102720.91;4169477;28;20045;-76
2021/03/20 06:26:36;;;;;;;23.73;13.82;;;3.70;99.90;;;3.38;89.67;102711.25;4186346;28;20021;-76
2021/03/20 06:29:14;;;;;;;16.75;12.15;;;3.70;99.90;;;3.32;90.12;102718.41;4184624;28;20071;-76
2021/03/20 06:31:32;;;;;;;13.30;10.68;;;3.70;99.90;;;3.32;88.89;102707.97;4181325;28;20037;-76
2021/03/20 06:33:48;;;;;;;16.70;11.85;;;3.70;99.90;;;3.50;88.55;102708.13;4184827;28;20531;-76
2021/03/20 06:36:06;;;;;;;17.10;12.70;;;3.80;99.90;;;3.44;88.80;102708.38;4178422;28;20021;-76
2021/03/20 06:38:28;;;;;;;17.65;12.00;;;3.80;99.90;;;3.56;87.71;102713.09;4185484;28;20041;-76
2021/03/20 06:40:40;;;;;;;15.50;11.75;;;3.90;99.90;;;3.49;88.75;102706.47;4185035;28;20036;-76
2021/03/20 06:42:43;;;;;;;14.98;11.15;;;4.00;99.90;;;3.41;88.62;102709.38;4185799;28;20362;-76
2021/03/20 06:44:47;;;;;;;17.77;13.23;;;3.90;99.90;;;3.38;89.28;102706.03;4184745;28;20029;-76
2021/03/20 06:46:52;;;;;;;19.45;12.38;;;3.80;99.90;;;3.54;88.20;102725.38;4175773;28;20032;-76
2021/03/20 06:48:55;;;;;;;22.30;12.35;;;3.90;99.90;;;3.46;88.08;102722.25;4180776;28;20078;-76
2021/03/20 06:51:00;;;;;;;17.13;11.93;;;4.00;99.90;;;3.44;88.08;102698.81;4184543;28;20072;-76
2021/03/20 06:53:07;;;;;;;15.82;11.38;;;4.00;99.90;;;3.47;89.21;102719.56;4173452;28;20484;-76
2021/03/20 06:55:37;;;;;;;22.40;12.75;;;3.90;99.90;;;3.59;88.04;102720.81;4177336;28;20033;-76
2021/03/20 06:57:38;;;;;;;17.58;12.25;;;4.00;99.90;;;3.71;88.01;102734.22;4184358;28;20025;-76
2021/03/20 06:59:39;;;;;;;18.23;12.52;;;4.10;99.90;;;3.73;87.18;102737.59;4185768;28;20095;-76
2021/03/20 07:02:20;;;;;;;15.77;11.45;;;4.20;99.90;;;3.86;86.63;102740.53;4185640;28;20404;-76
2021/03/20 07:04:51;;;;;;;18.10;12.30;;;4.20;99.90;;;3.78;87.06;102740.03;4185570;28;20029;-76
2021/03/20 07:07:12;;;;;;;20.75;12.05;;;4.20;99.90;;;3.92;86.82;102742.91;4184024;28;20021;-76
2021/03/20 07:09:13;;;;;;;19.13;11.60;;;4.20;99.90;;;3.81;87.87;102743.38;4174561;28;20025;-76
2021/03/20 07:11:29;;;;;;;18.35;11.65;;;4.40;99.90;;;3.83;87.32;102732.84;4185464;28;20039;-76
2021/03/20 07:13:45;;;;;;;18.40;11.70;;;4.40;99.90;;;3.96;87.51;102744.47;4185122;28;20033;-76
2021/03/20 07:16:20;;;;;;;22.55;12.55;;;4.50;99.90;;;4.04;87.33;102747.59;4185533;28;20029;-76
2021/03/20 07:18:44;;;;;;;18.52;12.55;;;4.60;99.90;;;4.01;87.57;102746.88;4185344;28;20037;-76
2021/03/20 07:20:45;;;;;;;19.35;12.45;;;4.60;99.90;;;4.19;86.66;102756.53;4185302;28;20035;-75
2021/03/20 07:22:49;;;;;;;19.08;13.32;;;4.60;99.90;;;4.23;86.21;102761.59;4183502;28;20100;-75
2021/03/20 07:24:50;;;;;;;;;;;4.70;99.90;;;4.14;85.91;102756.75;4185243;28;20036;-75
2021/03/20 07:27:28;;;;;;;17.90;12.02;;;4.80;99.90;;;3.89;87.37;102762.16;4185226;28;19908;-75
2021/03/20 07:29:51;;;;;;;20.05;13.40;;;4.80;99.90;;;3.99;87.71;102754.78;4184969;28;20392;-76
2021/03/20 07:32:01;;;;;;;19.30;13.32;;;4.90;99.90;;;4.11;87.75;102769.09;4179264;28;20029;-76
2021/03/20 07:34:16;;;;;;;23.45;13.30;;;4.80;99.90;;;4.11;87.23;102762.13;4177651;28;20021;-75
2021/03/20 07:36:37;;;;;;;19.50;12.63;;;4.90;99.90;;;4.12;87.29;102766.41;4183519;28;20075;-76
2021/03/20 07:38:38;;;;;;;19.50;13.45;;;4.90;99.90;;;4.17;86.69;102763.59;4175311;28;20017;-75
2021/03/20 07:40:39;;;;;;;17.05;12.75;;;5.00;99.90;;;4.29;86.54;102757.88;4174577;28;20044;-76
2021/03/20 07:42:41;;;;;;;22.55;13.52;;;5.00;99.90;;;4.37;86.62;102758.38;4181635;28;20028;-76
2021/03/20 07:44:55;;;;;;;21.40;13.65;;;5.10;99.90;;;4.38;86.60;102760.94;4184587;28;20138;-76
2021/03/20 07:46:57;;;;;;;21.15;13.63;;;5.00;99.90;;;4.40;86.94;102756.47;4185124;28;20032;-76
2021/03/20 07:49:04;;;;;;;18.67;13.48;;;5.10;99.90;;;4.37;85.59;102751.38;4184432;28;20021;-76
2021/03/20 07:51:17;;;;;;;18.65;13.27;;;5.20;99.90;;;4.38;85.75;102740.03;4183176;28;20040;-76
2021/03/20 07:53:21;;;;;;;17.80;12.73;;;5.30;99.90;;;4.46;85.25;102757.97;4158683;28;20080;-81
2021/03/20 07:55:23;;;;;;;22.92;13.23;;;5.30;99.90;;;4.59;85.49;102768.72;4176727;28;20028;-79
2021/03/20 07:57:24;;;;;;;23.38;15.15;;;5.40;99.90;;;4.43;86.73;102768.56;4180840;28;20064;-80
2021/03/20 07:59:30;;;;;;;20.05;12.43;;;5.30;99.90;;;4.57;85.41;102766.16;4186770;28;20028;-82
2021/03/20 08:01:36;;;;;;;16.45;13.48;;;5.40;99.90;;;4.62;85.45;102766.84;4175463;28;20127;-79
2021/03/20 08:03:54;;;;;;;16.13;13.80;;;5.40;99.90;;;4.80;85.15;102768.63;4179433;28;20025;-78
2021/03/20 08:06:16;;;;;;;19.17;13.77;;;5.40;99.90;;;4.72;85.92;102764.66;4183608;28;20025;-77
2021/03/20 08:08:25;;;;;;;20.65;14.30;;;5.60;99.90;;;4.90;84.89;102761.19;4184019;28;20021;-77
2021/03/20 08:10:31;;;;;;;18.90;12.80;;;5.60;99.90;;;4.95;84.96;102767.06;4184267;28;20028;-77
2021/03/20 08:12:32;;;;;;;21.13;13.63;;;5.70;99.90;;;5.01;84.26;102777.25;4166418;28;20459;-78
2021/03/20 08:14:54;;;;;;;17.10;13.73;;;5.70;99.90;;;5.00;83.66;102745.03;4176779;28;20118;-78
2021/03/20 08:16:55;;;;;;;18.52;13.90;;;5.80;99.90;;;5.05;83.98;102780.59;4181384;28;20063;-79
2021/03/20 08:18:58;;;;;;;22.17;16.00;;;5.90;99.90;;;4.89;84.21;102783.03;4185862;28;20365;-79
2021/03/20 08:21:20;;;;;;;20.20;14.15;;;5.90;99.90;;;5.24;82.99;102789.25;4183043;28;20428;-78
2021/03/20 08:23:42;;;;;;;19.08;14.60;;;6.00;99.90;;;5.40;82.69;102787.63;4182731;28;20078;-77
2021/03/20 08:26:18;;;;;;;18.77;13.48;;;6.10;99.90;;;5.41;81.76;102777.06;4193581;28;20033;-77
2021/03/20 08:28:43;;;;;;;24.52;14.45;;;6.20;99.90;;;5.57;81.93;102779.81;4183304;28;20170;-79
2021/03/20 08:31:05;;;;;;;20.77;14.05;;;6.30;99.90;;;5.54;82.70;102778.19;4184185;28;20040;-76
2021/03/20 08:33:34;;;;;;;19.85;14.15;;;6.40;99.90;;;5.41;81.98;102774.44;4184035;28;20074;-77
2021/03/20 08:35:43;;;;;;;20.23;13.73;;;6.50;99.90;;;5.53;82.59;102771.25;4183890;28;20028;-76
2021/03/20 08:37:52;;;;;;;23.90;14.13;;;6.50;99.90;;;5.79;82.05;102769.13;4183688;28;20037;-77
2021/03/20 08:40:29;;;;;;;18.05;12.45;;;6.50;99.90;;;5.86;80.83;102770.53;4180145;28;20110;-77
2021/03/20 08:42:51;;;;;;;19.50;14.07;;;6.70;99.90;;;5.89;80.09;102780.88;4167293;28;20104;-76
2021/03/20 08:45:33;;;;;;;19.30;13.57;;;6.70;99.90;;;6.07;80.04;102783.41;4172351;28;20551;-78
2021/03/20 08:48:31;;;;;;;21.33;13.48;;;6.80;99.90;;;5.92;79.29;102780.72;4171554;28;20582;-77
2021/03/20 08:50:58;;;;;;;19.55;14.27;;;6.90;99.90;;;6.16;78.94;102786.50;4183765;28;20056;-75
2021/03/20 08:53:13;;;;;;;23.25;14.15;;;7.00;99.90;;;6.33;79.02;102782.09;4182698;28;20101;-76
2021/03/20 08:55:38;;;;;;;21.30;14.05;;;7.10;99.90;;;6.13;78.01;102784.88;4181841;28;20108;-76
2021/03/20 08:58:12;;;;;;;18.45;13.40;;;7.20;99.90;;;6.04;77.82;102769.63;4169226;28;20033;-76
2021/03/20 09:00:35;;;;;;;19.67;13.32;;;7.20;99.90;;;6.27;78.12;102777.19;4177247;28;20067;-77
2021/03/20 09:02:40;;;;;;;19.25;14.52;;;7.20;99.90;;;6.38;78.22;102776.63;4184319;28;20025;-77
2021/03/20 09:04:41;;;;;;;22.95;14.70;;;7.30;99.90;;;6.49;76.97;102766.41;4182753;28;20025;-77
2021/03/20 09:06:57;;;;;;;15.55;12.52;;;7.50;99.90;;;6.51;76.45;102775.06;4177476;28;20032;-77
2021/03/20 09:09:20;;;;;;;21.63;13.63;;;7.40;99.90;;;6.66;76.04;102772.47;4183742;28;20039;-77
2021/03/20 09:11:37;;;;;;;15.98;14.27;;;7.50;99.90;;;6.74;76.14;102771.22;4185716;28;20554;-77
2021/03/20 09:13:42;;;;;;;20.60;14.13;;;7.60;99.90;;;6.53;75.44;102783.69;4186833;28;20508;-77
2021/03/20 09:15:54;;;;;;;17.95;13.63;;;7.60;99.90;;;6.49;76.03;102777.75;4187329;28;20053;-77
2021/03/20 09:18:00;;;;;;;25.13;16.77;;;7.70;99.90;;;6.73;74.89;102785.25;4185814;28;20039;-77
2021/03/20 09:20:10;;;;;;;23.25;14.88;;;7.70;99.90;;;6.67;74.01;102781.19;4185639;28;20484;-77
2021/03/20 09:22:15;;;;;;;21.60;14.43;;;7.70;99.90;;;6.57;75.28;102775.56;4186255;28;20044;-77